createdAt,value
2019-04-05T00:00:35.714Z,19.43
2019-04-05T00:05:38.500Z,20.10
2019-04-05T00:10:41.195Z,18.60
2019-04-05T00:15:45.113Z,20.67
2019-04-05T00:20:47.798Z,20.70
2019-04-05T00:25:50.517Z,18.43
2019-04-05T00:30:53.302Z,18.03
2019-04-05T00:35:55.987Z,19.63
2019-04-05T00:40:58.683Z,16.97
2019-04-05T00:46:01.385Z,17.83
2019-04-05T00:51:04.185Z,18.97
2019-04-05T00:56:06.892Z,20.23
2019-04-05T01:01:09.569Z,19.10
2019-04-05T01:06:13.555Z,18.87
2019-04-05T01:11:16.508Z,18.37
2019-04-05T01:16:19.281Z,17.97
2019-04-05T01:21:24.372Z,17.47
2019-04-05T01:26:27.963Z,16.73
2019-04-05T01:31:30.637Z,16.97
2019-04-05T01:36:33.319Z,17.40
2019-04-05T01:41:36.316Z,17.97
2019-04-05T01:46:39.594Z,17.10
2019-04-05T01:51:42.857Z,15.37
2019-04-05T01:56:45.542Z,19.50
2019-04-05T02:01:48.626Z,17.77
2019-04-05T02:06:51.411Z,17.63
2019-04-05T02:11:54.305Z,17.00
2019-04-05T02:16:56.988Z,15.67
2019-04-05T02:21:59.700Z,18.83
2019-04-05T02:27:02.380Z,16.53
2019-04-05T02:32:05.070Z,16.40
2019-04-05T02:37:07.751Z,14.87
2019-04-05T02:42:11.765Z,15.70
2019-04-05T02:47:14.760Z,15.70
2019-04-05T02:52:20.457Z,17.17
2019-04-05T02:57:24.651Z,17.00
2019-04-05T03:02:28.754Z,15.70
2019-04-05T03:07:31.429Z,15.80
2019-04-05T03:12:35.241Z,16.00
2019-04-05T03:17:38.332Z,15.60
2019-04-05T03:22:41.025Z,16.17
2019-04-05T03:27:44.315Z,16.57
2019-04-05T03:32:47.741Z,16.87
2019-04-05T03:37:51.015Z,16.20
2019-04-05T03:42:53.807Z,16.40
2019-04-05T03:47:58.233Z,15.20
2019-04-05T03:53:00.932Z,16.13
2019-04-05T03:58:04.011Z,18.10
2019-04-05T04:03:06.798Z,15.70
2019-04-05T04:08:10.084Z,18.17
2019-04-05T04:13:12.789Z,18.10
2019-04-05T04:18:15.958Z,17.77
2019-04-05T04:23:22.447Z,16.47
2019-04-05T04:28:25.647Z,16.90
2019-04-05T04:33:28.899Z,17.33
2019-04-05T04:38:32.011Z,17.17
2019-04-05T04:43:35.381Z,17.03
2019-04-05T04:48:39.258Z,17.60
2019-04-05T04:53:42.475Z,17.37
2019-04-05T04:58:46.386Z,17.80
2019-04-05T05:03:49.586Z,15.70
2019-04-05T05:08:52.691Z,17.80
2019-04-05T05:13:55.582Z,16.00
2019-04-05T05:18:59.021Z,14.97
2019-04-05T05:24:01.718Z,15.00
2019-04-05T05:29:04.828Z,15.37
2019-04-05T05:34:07.925Z,15.60
2019-04-05T05:39:10.716Z,15.27
2019-04-05T05:44:13.434Z,15.23
2019-04-05T05:49:16.155Z,14.50
2019-04-05T05:54:18.849Z,15.07
2019-04-05T05:59:21.596Z,15.40
2019-04-05T06:04:24.299Z,15.73
2019-04-05T06:09:26.985Z,14.30
2019-04-05T06:14:29.670Z,15.00
2019-04-05T06:19:32.386Z,14.20
2019-04-05T06:24:35.094Z,15.67
2019-04-05T06:29:37.811Z,15.17
2019-04-05T06:34:40.512Z,15.60
2019-04-05T06:39:43.277Z,14.80
2019-04-05T06:44:45.955Z,14.57
2019-04-05T06:49:48.664Z,16.00
2019-04-05T06:54:51.369Z,15.73
2019-04-05T06:59:54.082Z,14.50
2019-04-05T07:04:56.897Z,16.20
2019-04-05T07:09:59.590Z,14.97
2019-04-05T07:15:02.344Z,14.27
2019-04-05T07:20:05.207Z,14.50
2019-04-05T07:25:07.892Z,15.73
2019-04-05T07:30:11.204Z,14.53
2019-04-05T07:36:12.333Z,13.93
2019-04-05T07:41:15.043Z,14.07
2019-04-05T07:46:17.733Z,15.40
2019-04-05T07:51:22.663Z,14.83
2019-04-05T07:56:25.341Z,15.20
2019-04-05T08:01:28.040Z,15.30
2019-04-05T08:06:33.350Z,14.37
2019-04-05T08:11:37.765Z,14.80
2019-04-05T08:16:40.622Z,13.50
2019-04-05T08:21:43.318Z,14.57
2019-04-05T08:26:46.027Z,13.43
2019-04-05T08:31:48.738Z,13.53
2019-04-05T08:36:51.438Z,14.37
2019-04-05T08:41:54.135Z,14.10
2019-04-05T08:46:56.831Z,14.67
2019-04-05T08:51:59.529Z,13.93
2019-04-05T08:57:02.225Z,13.67
2019-04-05T09:02:04.927Z,13.20
2019-04-05T09:07:07.629Z,13.67
2019-04-05T09:12:10.362Z,14.03
2019-04-05T09:17:13.064Z,14.93
2019-04-05T09:22:15.780Z,13.23
2019-04-05T09:27:18.485Z,13.20
2019-04-05T09:32:21.190Z,13.40
2019-04-05T09:37:23.884Z,14.10
2019-04-05T09:42:26.582Z,14.50
2019-04-05T09:47:29.280Z,13.00
2019-04-05T09:52:31.973Z,13.23
2019-04-05T09:57:34.672Z,14.00
2019-04-05T10:02:37.375Z,13.60
2019-04-05T10:07:53.885Z,13.77
2019-04-05T10:12:44.758Z,14.10
2019-04-05T10:17:47.440Z,13.07
2019-04-05T10:22:50.137Z,14.30
2019-04-05T10:27:52.842Z,13.47
2019-04-05T10:32:55.521Z,14.67
2019-04-05T10:37:58.577Z,13.57
2019-04-05T10:43:01.418Z,14.30
2019-04-05T10:48:04.124Z,14.57
2019-04-05T10:53:06.965Z,15.27
2019-04-05T10:58:09.837Z,13.40
2019-04-05T11:03:12.538Z,13.70
2019-04-05T11:08:15.238Z,14.20
2019-04-05T11:13:17.934Z,14.77
2019-04-05T11:18:20.630Z,14.20
2019-04-05T11:23:23.318Z,27.00
2019-04-05T11:28:26.010Z,15.07
2019-04-05T11:33:28.843Z,15.83
2019-04-05T11:38:31.534Z,14.13
2019-04-05T11:43:35.136Z,14.57
2019-04-05T11:48:41.095Z,14.50
2019-04-05T11:53:42.762Z,14.10
2019-04-05T11:58:48.792Z,13.43
2019-04-05T12:03:51.750Z,15.73
2019-04-05T12:08:54.441Z,15.20
2019-04-05T12:13:58.735Z,14.53
2019-04-05T12:19:04.490Z,15.07
2019-04-05T12:24:06.038Z,15.77
2019-04-05T12:29:08.814Z,13.50
2019-04-05T12:34:11.511Z,16.50
2019-04-05T12:39:14.207Z,13.80
2019-04-05T12:44:16.894Z,14.47
2019-04-05T12:49:19.698Z,15.10
2019-04-05T12:54:22.407Z,14.20
2019-04-05T12:59:25.928Z,15.63
2019-04-05T13:04:28.803Z,15.30
2019-04-05T13:09:31.499Z,14.50
2019-04-05T13:14:34.309Z,15.67
2019-04-05T13:19:37.007Z,15.70
2019-04-05T13:24:40.390Z,15.43
2019-04-05T13:29:43.310Z,15.20
2019-04-05T13:34:46.007Z,15.67
2019-04-05T13:39:48.697Z,16.00
2019-04-05T13:44:51.391Z,16.10
2019-04-05T13:49:54.093Z,15.80
2019-04-05T13:54:56.789Z,15.27
2019-04-05T13:59:59.502Z,15.93
2019-04-05T14:05:02.204Z,15.43
2019-04-05T14:10:05.747Z,16.70
2019-04-05T14:15:11.240Z,16.83
2019-04-05T14:20:14.140Z,16.87
2019-04-05T14:25:16.939Z,14.77
2019-04-05T14:30:19.643Z,16.00
2019-04-05T14:35:24.517Z,16.27
2019-04-05T14:40:28.874Z,15.63
2019-04-05T14:45:31.515Z,16.97
2019-04-05T14:50:34.211Z,16.60
2019-04-05T14:55:36.905Z,15.23
2019-04-05T15:00:39.619Z,17.40
2019-04-05T15:05:42.410Z,16.97
2019-04-05T15:10:45.106Z,17.17
2019-04-05T15:15:47.798Z,17.07
2019-04-05T15:20:50.486Z,15.80
2019-04-05T15:25:53.220Z,15.43
2019-04-05T15:30:56.593Z,16.23
2019-04-05T15:36:02.952Z,18.00
2019-04-05T15:41:04.029Z,17.03
2019-04-05T15:46:06.747Z,17.00
2019-04-05T15:51:09.762Z,17.30
2019-04-05T15:56:12.562Z,18.30
2019-04-05T16:01:15.830Z,18.70
2019-04-05T16:06:18.520Z,17.70
2019-04-05T16:11:21.233Z,16.77
2019-04-05T16:16:23.935Z,17.40
2019-04-05T16:21:26.640Z,17.50
2019-04-05T16:26:29.387Z,19.13
2019-04-05T16:31:32.087Z,17.17
2019-04-05T16:36:34.874Z,28.10
2019-04-05T16:41:37.565Z,19.30
2019-04-05T16:46:40.262Z,22.00
2019-04-05T16:51:42.972Z,20.40
2019-04-05T16:56:45.661Z,21.00
2019-04-05T17:01:48.487Z,20.17
2019-04-05T17:06:51.176Z,20.20
2019-04-05T17:11:53.904Z,21.07
2019-04-05T17:16:56.623Z,22.13
2019-04-05T17:21:59.322Z,20.83
2019-04-05T17:27:02.054Z,21.53
2019-04-05T17:32:04.742Z,19.53
2019-04-05T17:37:07.441Z,23.70
2019-04-05T17:42:10.131Z,19.73
2019-04-05T17:47:12.819Z,21.97
2019-04-05T17:52:15.912Z,24.90
2019-04-05T17:57:18.909Z,22.37
2019-04-05T18:02:21.608Z,23.60
2019-04-05T18:07:24.313Z,30.90
2019-04-05T18:12:27.021Z,25.00
2019-04-05T18:17:29.738Z,21.50
2019-04-05T18:22:32.423Z,22.50
2019-04-05T18:27:35.124Z,23.40
2019-04-05T18:32:37.836Z,24.10
2019-04-05T18:37:40.541Z,22.63
2019-04-05T18:42:43.261Z,22.73
2019-04-05T18:47:45.964Z,26.47
2019-04-05T18:52:48.663Z,23.83
2019-04-05T18:57:51.367Z,23.10
2019-04-05T19:02:54.094Z,25.97
2019-04-05T19:07:56.872Z,21.70
2019-04-05T19:13:00.475Z,23.70
2019-04-05T19:18:03.338Z,22.93
2019-04-05T19:23:06.137Z,23.27
2019-04-05T19:28:09.695Z,21.47
2019-04-05T19:53:29.169Z,23.50
2019-04-05T19:58:31.862Z,23.70
2019-04-05T20:03:34.588Z,23.27
2019-04-05T20:08:37.358Z,23.27
2019-04-05T20:13:40.105Z,24.57
2019-04-05T20:18:43.002Z,24.70
2019-04-05T20:23:47.714Z,25.97
2019-04-05T20:28:50.300Z,23.60
2019-04-05T20:33:53.129Z,23.13
2019-04-05T20:38:55.830Z,24.50
2019-04-05T20:43:58.531Z,23.43
2019-04-05T20:49:01.223Z,24.43
2019-04-05T20:54:04.592Z,25.30
2019-04-05T20:59:07.484Z,24.00
2019-04-05T21:04:10.177Z,23.07
2019-04-05T21:09:12.881Z,26.00
2019-04-05T21:14:15.573Z,25.07
2019-04-05T21:19:18.269Z,25.00
2019-04-05T21:24:21.191Z,26.70
2019-04-05T21:29:23.876Z,23.80
2019-04-05T21:34:26.697Z,27.70
2019-04-05T21:39:29.587Z,24.00
2019-04-05T21:44:32.261Z,27.37
2019-04-05T21:49:34.962Z,25.73
2019-04-05T21:54:47.131Z,28.80
2019-04-05T21:59:42.257Z,28.27
2019-04-05T22:04:44.965Z,29.40
2019-04-05T22:09:47.665Z,30.60
2019-04-05T22:14:50.361Z,29.47
2019-04-05T22:19:53.067Z,28.57
2019-04-05T22:24:59.480Z,28.67
2019-04-05T22:30:00.368Z,27.17
2019-04-05T22:35:03.245Z,29.07
2019-04-05T22:40:06.436Z,30.90
2019-04-05T22:45:09.943Z,29.27
2019-04-05T22:50:13.137Z,30.40
2019-04-05T22:55:15.833Z,32.63
2019-04-05T23:00:18.567Z,30.97
2019-04-05T23:05:21.260Z,32.87
2019-04-05T23:10:23.952Z,30.60
2019-04-05T23:15:26.640Z,35.10
2019-04-05T23:20:29.342Z,33.97
2019-04-05T23:25:32.059Z,31.73
2019-04-05T23:30:34.754Z,33.30
2019-04-05T23:35:37.444Z,32.07
2019-04-05T23:40:40.165Z,33.07
2019-04-05T23:45:42.857Z,33.10
2019-04-05T23:50:45.548Z,32.30
2019-04-05T23:55:48.244Z,34.77
